RYR64LV EGSS-EDDK
Flight info
| Callsign | RYR64LV |
|---|---|
| Flight time | N/A |
| Altitude | 33000 |
| Route | CLN M84 KONAN UL607 SPI T857 DENOV T861 ERUKI T856 DEPOK |
| Aircraft | B38M/M-SDE1FGHILORVWXY/HB1 |
Departure
| Time | N/A |
|---|---|
| Airport | London Stansted Airport (EGSS) |
Arrival
| Time | 2026-04-21 21:17 |
|---|---|
| Airport | Cologne Bonn Airport (EDDK) |
| Time | Latitude | Longitude | Altitude | Speed | Heading |
|---|---|---|---|---|---|
| 2026-04-21 20:55 | 50.94142 | 4.53047 | 28292 ft | 465 kts | 85° |
| 2026-04-21 20:55 | 50.94286 | 4.58170 | 28293 ft | 465 kts | 85° |
| 2026-04-21 20:56 | 50.94568 | 4.68425 | 28289 ft | 465 kts | 85° |
| 2026-04-21 20:56 | 50.94703 | 4.73499 | 28297 ft | 450 kts | 86° |
| 2026-04-21 20:56 | 50.94833 | 4.78381 | 28315 ft | 439 kts | 86° |
| 2026-04-21 20:57 | 50.95079 | 4.87921 | 27844 ft | 428 kts | 86° |
| 2026-04-21 20:57 | 50.95197 | 4.92603 | 27461 ft | 419 kts | 86° |
| 2026-04-21 20:57 | 50.95309 | 4.97154 | 27253 ft | 407 kts | 86° |
| 2026-04-21 20:58 | 50.95418 | 5.01605 | 26757 ft | 403 kts | 86° |
| 2026-04-21 20:58 | 50.95524 | 5.06030 | 26182 ft | 401 kts | 86° |
| 2026-04-21 20:58 | 50.95628 | 5.10438 | 25652 ft | 398 kts | 86° |
| 2026-04-21 20:58 | 50.95730 | 5.14810 | 25134 ft | 396 kts | 86° |
| 2026-04-21 20:59 | 50.95830 | 5.19154 | 24634 ft | 393 kts | 86° |
| 2026-04-21 20:59 | 50.95926 | 5.23415 | 24126 ft | 390 kts | 86° |
| 2026-04-21 20:59 | 50.96021 | 5.27703 | 23563 ft | 388 kts | 86° |
| 2026-04-21 20:59 | 50.96114 | 5.31957 | 23001 ft | 385 kts | 86° |
| 2026-04-21 21:00 | 50.96204 | 5.36174 | 22492 ft | 380 kts | 86° |
| 2026-04-21 21:00 | 50.96292 | 5.40343 | 22004 ft | 376 kts | 86° |
| 2026-04-21 21:00 | 50.96377 | 5.44464 | 21516 ft | 372 kts | 86° |
| 2026-04-21 21:00 | 50.96460 | 5.48553 | 21030 ft | 369 kts | 86° |
| 2026-04-21 21:01 | 50.96541 | 5.52598 | 20556 ft | 366 kts | 86° |
| 2026-04-21 21:01 | 50.96620 | 5.56617 | 20075 ft | 363 kts | 86° |
| 2026-04-21 21:01 | 50.96673 | 5.59311 | 19755 ft | 361 kts | 86° |
| 2026-04-21 21:01 | 50.96773 | 5.64568 | 19149 ft | 359 kts | 86° |
| 2026-04-21 21:02 | 50.96823 | 5.67233 | 18856 ft | 357 kts | 86° |
| 2026-04-21 21:02 | 50.96895 | 5.71164 | 18350 ft | 356 kts | 86° |
| 2026-04-21 21:02 | 50.96989 | 5.76355 | 17484 ft | 357 kts | 86° |
| 2026-04-21 21:02 | 50.97036 | 5.79013 | 17117 ft | 356 kts | 86° |
| 2026-04-21 21:03 | 50.97104 | 5.82932 | 16620 ft | 354 kts | 86° |
| 2026-04-21 21:03 | 50.97170 | 5.86773 | 16172 ft | 340 kts | 86° |
| 2026-04-21 21:03 | 50.97231 | 5.90452 | 15730 ft | 327 kts | 86° |
| 2026-04-21 21:03 | 50.97289 | 5.93985 | 15302 ft | 315 kts | 86° |
| 2026-04-21 21:04 | 50.97344 | 5.97396 | 14896 ft | 304 kts | 86° |
| 2026-04-21 21:04 | 50.97397 | 6.00689 | 14499 ft | 294 kts | 86° |
| 2026-04-21 21:04 | 50.97446 | 6.03871 | 14123 ft | 284 kts | 86° |
| 2026-04-21 21:04 | 50.97493 | 6.06946 | 13733 ft | 282 kts | 86° |
| 2026-04-21 21:05 | 50.97540 | 6.10055 | 13339 ft | 282 kts | 86° |
| 2026-04-21 21:05 | 50.97587 | 6.13201 | 12959 ft | 281 kts | 86° |
| 2026-04-21 21:05 | 50.97631 | 6.16252 | 12600 ft | 280 kts | 86° |
| 2026-04-21 21:05 | 50.97675 | 6.19329 | 12232 ft | 279 kts | 86° |
| 2026-04-21 21:06 | 50.97718 | 6.22406 | 11861 ft | 278 kts | 86° |
| 2026-04-21 21:06 | 50.97761 | 6.25506 | 11496 ft | 277 kts | 86° |
| 2026-04-21 21:06 | 50.97802 | 6.28523 | 11136 ft | 277 kts | 86° |
| 2026-04-21 21:06 | 50.97842 | 6.31569 | 10773 ft | 276 kts | 86° |
| 2026-04-21 21:07 | 50.97881 | 6.34615 | 10415 ft | 276 kts | 87° |
| 2026-04-21 21:07 | 50.97920 | 6.37653 | 10040 ft | 275 kts | 87° |
| 2026-04-21 21:07 | 50.97957 | 6.40642 | 9636 ft | 267 kts | 87° |
| 2026-04-21 21:07 | 50.97992 | 6.43528 | 9281 ft | 257 kts | 87° |
| 2026-04-21 21:08 | 50.98026 | 6.46357 | 8966 ft | 256 kts | 87° |
| 2026-04-21 21:08 | 50.98059 | 6.49174 | 8624 ft | 255 kts | 87° |
| 2026-04-21 21:08 | 50.98091 | 6.51978 | 8293 ft | 254 kts | 87° |
| 2026-04-21 21:08 | 50.98122 | 6.54780 | 7959 ft | 254 kts | 88° |
| 2026-04-21 21:09 | 50.98153 | 6.57583 | 7617 ft | 254 kts | 88° |
| 2026-04-21 21:09 | 50.98183 | 6.60383 | 7283 ft | 254 kts | 88° |
| 2026-04-21 21:09 | 50.98213 | 6.63179 | 6937 ft | 254 kts | 88° |
| 2026-04-21 21:09 | 50.98170 | 6.65975 | 6575 ft | 252 kts | 97° |
| 2026-04-21 21:10 | 50.97817 | 6.68682 | 6107 ft | 250 kts | 103° |
| 2026-04-21 21:10 | 50.97401 | 6.71342 | 5632 ft | 247 kts | 103° |
| 2026-04-21 21:10 | 50.96999 | 6.73978 | 5180 ft | 244 kts | 103° |
| 2026-04-21 21:10 | 50.96853 | 6.76606 | 4741 ft | 239 kts | 82° |
| 2026-04-21 21:11 | 50.97280 | 6.79133 | 4333 ft | 235 kts | 73° |
| 2026-04-21 21:11 | 50.97792 | 6.81569 | 3914 ft | 231 kts | 73° |
| 2026-04-21 21:11 | 50.98302 | 6.83958 | 3568 ft | 225 kts | 73° |
| 2026-04-21 21:11 | 50.98716 | 6.86268 | 3388 ft | 209 kts | 83° |
| 2026-04-21 21:12 | 50.98759 | 6.88452 | 3362 ft | 188 kts | 92° |
| 2026-04-21 21:12 | 50.98703 | 6.90427 | 3270 ft | 173 kts | 92° |
| 2026-04-21 21:12 | 50.98654 | 6.92287 | 3172 ft | 163 kts | 92° |
| 2026-04-21 21:12 | 50.98610 | 6.94052 | 3072 ft | 158 kts | 92° |
| 2026-04-21 21:13 | 50.98570 | 6.95786 | 3012 ft | 157 kts | 92° |
| 2026-04-21 21:13 | 50.98286 | 6.97461 | 2968 ft | 157 kts | 115° |
| 2026-04-21 21:13 | 50.97671 | 6.98868 | 2831 ft | 155 kts | 128° |
| 2026-04-21 21:13 | 50.96904 | 7.00047 | 2621 ft | 153 kts | 133° |
| 2026-04-21 21:14 | 50.96120 | 7.01172 | 2433 ft | 151 kts | 133° |
| 2026-04-21 21:14 | 50.95351 | 7.02289 | 2248 ft | 146 kts | 132° |
| 2026-04-21 21:14 | 50.94711 | 7.03221 | 2082 ft | 140 kts | 132° |
| 2026-04-21 21:14 | 50.93997 | 7.04261 | 1895 ft | 139 kts | 132° |
| 2026-04-21 21:15 | 50.93308 | 7.05263 | 1740 ft | 131 kts | 131° |
| 2026-04-21 21:15 | 50.92643 | 7.06230 | 1532 ft | 129 kts | 132° |
| 2026-04-21 21:15 | 50.91981 | 7.07194 | 1346 ft | 130 kts | 132° |
| 2026-04-21 21:15 | 50.91306 | 7.08184 | 1161 ft | 134 kts | 134° |
| 2026-04-21 21:16 | 50.90609 | 7.09191 | 962 ft | 136 kts | 134° |
| 2026-04-21 21:16 | 50.89909 | 7.10207 | 778 ft | 137 kts | 135° |
| 2026-04-21 21:16 | 50.89211 | 7.11203 | 620 ft | 134 kts | 134° |
| 2026-04-21 21:16 | 50.88518 | 7.12221 | 409 ft | 137 kts | 135° |
| 2026-04-21 21:17 | 50.87817 | 7.13231 | 252 ft | 134 kts | 134° |
| 2026-04-21 21:17 | 50.87254 | 7.14058 | 247 ft | 74 kts | 137° |
| 2026-04-21 21:17 | 50.86981 | 7.14457 | 259 ft | 22 kts | 137° |
| 2026-04-21 21:17 | 50.86876 | 7.14505 | 263 ft | 14 kts | 229° |
| 2026-04-21 21:18 | 50.86880 | 7.14393 | 262 ft | 15 kts | 280° |
| 2026-04-21 21:18 | 50.86908 | 7.14137 | 257 ft | 30 kts | 279° |
| 2026-04-21 21:18 | 50.86980 | 7.13843 | 247 ft | 35 kts | 311° |
| 2026-04-21 21:18 | 50.87159 | 7.13581 | 240 ft | 31 kts | 317° |
| 2026-04-21 21:19 | 50.87334 | 7.13332 | 235 ft | 34 kts | 318° |
| 2026-04-21 21:19 | 50.87512 | 7.13070 | 235 ft | 36 kts | 318° |
| 2026-04-21 21:19 | 50.87690 | 7.12815 | 235 ft | 31 kts | 317° |
| 2026-04-21 21:19 | 50.87840 | 7.12620 | 237 ft | 25 kts | 341° |
| 2026-04-21 21:20 | 50.87994 | 7.12505 | 235 ft | 26 kts | 317° |
| 2026-04-21 21:20 | 50.88103 | 7.12270 | 236 ft | 28 kts | 295° |
| 2026-04-21 21:20 | 50.88202 | 7.12048 | 236 ft | 15 kts | 306° |
| 2026-04-21 21:20 | 50.88193 | 7.11971 | 235 ft | 9 kts | 214° |
| 2026-04-21 21:21 | 50.88177 | 7.11953 | 239 ft | 0 kts | 216° |